Vosgienne — XPE7377 — position and weather

sailwx.info

Track history (hours):
 
Tides and Currents Weather Stations Pressure Air Temp Water Temp Dewpoint Dewpoint Depression Visibility Wind Speed Wind Dir Waves Ship Positions

Vosgienne

Last reported at 2017-Oct-15 16:17 UTC. Time now 2017-Dec-11 09:44 UTC.
Position N 28°03' W 014°33'.
Warning: this ship's position is 56 days out of date.

Length 13 m.

Type: Pleasure craft. MMSI: 219021052.

Date/timePositionNaut miles runAvg speedWind from/ knotsBaromVisibWave heightAir tempDewpointWater temp
2017-Oct-15 16:17N 28°03' W 014°33'2 5.3
2017-Oct-15 15:54N 28°03' W 014°35'2 5.2
2017-Oct-15 15:27N 28°04' W 014°38'13 5.6
2017-Oct-15 13:12N 28°04' W 014°53'1 5.2
2017-Oct-15 13:00N 28°04' W 014°54'3 5.9
2017-Oct-15 12:30N 28°04' W 014°57'3 5.6
2017-Oct-15 12:00N 28°05' W 015°00'2 4.4
2017-Oct-15 11:29N 28°05' W 015°03'2 3.3
2017-Oct-15 11:00N 28°05' W 015°05'2 4.0
2017-Oct-15 10:29N 28°05' W 015°07'2 4.6
2017-Oct-15 10:00N 28°05' W 015°09'3 5.6
2017-Oct-15 09:30N 28°05' W 015°13'3 6.0
2017-Oct-15 08:59N 28°05' W 015°16'3 5.9
2017-Oct-15 08:28N 28°06' W 015°20'3 6.6
2017-Oct-15 07:58N 28°06' W 015°23'2 4.2
2017-Oct-15 07:27N 28°08' W 015°25'0 0.5
2017-Oct-15 06:53N 28°08' W 015°25'0 0.0
2017-Oct-15 06:23N 28°08' W 015°25'0 0.0
2017-Oct-15 06:00N 28°08' W 015°25'0 0.0
2017-Oct-15 05:18N 28°08' W 015°25'0 0.0
2017-Oct-15 04:48N 28°08' W 015°25'0 0.0
2017-Oct-15 04:18N 28°08' W 015°25'0 0.0
2017-Oct-15 04:00N 28°08' W 015°25'0 0.0
2017-Oct-15 03:30N 28°08' W 015°25'0 0.0
2017-Oct-15 03:00N 28°08' W 015°25'0 0.0
2017-Oct-15 02:21N 28°08' W 015°25'0 0.0
2017-Oct-15 01:51N 28°08' W 015°25'0 0.0
2017-Oct-15 01:21N 28°08' W 015°25'0 0.0
2017-Oct-15 00:54N 28°08' W 015°25'0 0.0
2017-Oct-15 00:24N 28°08' W 015°25'0 0.0
2017-Oct-14 23:54N 28°08' W 015°25'0 0.0
2017-Oct-14 23:24N 28°08' W 015°25'0 0.0
2017-Oct-14 22:57N 28°08' W 015°25'0 0.0
2017-Oct-14 22:27N 28°08' W 015°25'0 0.0
2017-Oct-14 21:57N 28°08' W 015°25'0 0.0
2017-Oct-14 21:27N 28°08' W 015°25'0 0.0
2017-Oct-14 21:00N 28°08' W 015°25'0 0.0
2017-Oct-14 20:27N 28°08' W 015°25'0 0.0
2017-Oct-14 20:00N 28°08' W 015°25'0 0.3
2017-Oct-14 19:29N 28°08' W 015°26'2 3.0
2017-Oct-14 18:58N 28°08' W 015°24'3 6.0
2017-Oct-14 18:27N 28°11' W 015°24'3 5.4
2017-Oct-14 17:56N 28°12' W 015°26'3 5.7
2017-Oct-14 17:26N 28°13' W 015°29'3 5.5
2017-Oct-14 16:55N 28°14' W 015°32'2 5.4
2017-Oct-14 16:30N 28°15' W 015°35'4 5.2
2017-Oct-14 15:43N 28°16' W 015°39'  
Track history (hours):
 
Tides and Currents Weather Stations Pressure Air Temp Water Temp Dewpoint Dewpoint Depression Visibility Wind Speed Wind Dir Waves Ship Positions

Vosgienne

Last reported at 2017-Oct-15 16:17 UTC. Time now 2017-Dec-11 09:44 UTC.
Position N 28°03' W 014°33'.
Warning: this ship's position is 56 days out of date.

Length 13 m.

Type: Pleasure craft. MMSI: 219021052.

Date/timePositionNaut miles runAvg speedWind from/ knotsBaromVisibWave heightAir tempDewpointWater temp
2017-Oct-15 16:17N 28°03' W 014°33'2 5.3
2017-Oct-15 15:54N 28°03' W 014°35'2 5.2
2017-Oct-15 15:27N 28°04' W 014°38'13 5.6
2017-Oct-15 13:12N 28°04' W 014°53'1 5.2
2017-Oct-15 13:00N 28°04' W 014°54'3 5.9
2017-Oct-15 12:30N 28°04' W 014°57'3 5.6
2017-Oct-15 12:00N 28°05' W 015°00'2 4.4
2017-Oct-15 11:29N 28°05' W 015°03'2 3.3
2017-Oct-15 11:00N 28°05' W 015°05'2 4.0
2017-Oct-15 10:29N 28°05' W 015°07'2 4.6
2017-Oct-15 10:00N 28°05' W 015°09'3 5.6
2017-Oct-15 09:30N 28°05' W 015°13'3 6.0
2017-Oct-15 08:59N 28°05' W 015°16'3 5.9
2017-Oct-15 08:28N 28°06' W 015°20'3 6.6
2017-Oct-15 07:58N 28°06' W 015°23'2 4.2
2017-Oct-15 07:27N 28°08' W 015°25'0 0.5
2017-Oct-15 06:53N 28°08' W 015°25'0 0.0
2017-Oct-15 06:23N 28°08' W 015°25'0 0.0
2017-Oct-15 06:00N 28°08' W 015°25'0 0.0
2017-Oct-15 05:18N 28°08' W 015°25'0 0.0
2017-Oct-15 04:48N 28°08' W 015°25'0 0.0
2017-Oct-15 04:18N 28°08' W 015°25'0 0.0
2017-Oct-15 04:00N 28°08' W 015°25'0 0.0
2017-Oct-15 03:30N 28°08' W 015°25'0 0.0
2017-Oct-15 03:00N 28°08' W 015°25'0 0.0
2017-Oct-15 02:21N 28°08' W 015°25'0 0.0
2017-Oct-15 01:51N 28°08' W 015°25'0 0.0
2017-Oct-15 01:21N 28°08' W 015°25'0 0.0
2017-Oct-15 00:54N 28°08' W 015°25'0 0.0
2017-Oct-15 00:24N 28°08' W 015°25'0 0.0
2017-Oct-14 23:54N 28°08' W 015°25'0 0.0
2017-Oct-14 23:24N 28°08' W 015°25'0 0.0
2017-Oct-14 22:57N 28°08' W 015°25'0 0.0
2017-Oct-14 22:27N 28°08' W 015°25'0 0.0
2017-Oct-14 21:57N 28°08' W 015°25'0 0.0
2017-Oct-14 21:27N 28°08' W 015°25'0 0.0
2017-Oct-14 21:00N 28°08' W 015°25'0 0.0
2017-Oct-14 20:27N 28°08' W 015°25'0 0.0
2017-Oct-14 20:00N 28°08' W 015°25'0 0.3
2017-Oct-14 19:29N 28°08' W 015°26'2 3.0
2017-Oct-14 18:58N 28°08' W 015°24'3 6.0
2017-Oct-14 18:27N 28°11' W 015°24'3 5.4
2017-Oct-14 17:56N 28°12' W 015°26'3 5.7
2017-Oct-14 17:26N 28°13' W 015°29'3 5.5
2017-Oct-14 16:55N 28°14' W 015°32'2 5.4
2017-Oct-14 16:30N 28°15' W 015°35'4 5.2
2017-Oct-14 15:43N 28°16' W 015°39'  

Dump ship's entire track history